createdAt,value
2019-04-01T00:00:32.012Z,0
2019-04-01T00:03:38.027Z,0
2019-04-01T00:06:46.489Z,0
2019-04-01T00:09:52.441Z,0
2019-04-01T00:12:58.313Z,0
2019-04-01T00:16:04.368Z,0
2019-04-01T00:19:10.331Z,0
2019-04-01T00:22:16.280Z,0
2019-04-01T00:25:22.188Z,0
2019-04-01T00:28:28.278Z,0
2019-04-01T00:31:34.210Z,0
2019-04-01T00:34:40.226Z,0
2019-04-01T00:37:46.201Z,0
2019-04-01T00:40:52.076Z,0
2019-04-01T00:44:00.746Z,0
2019-04-01T00:47:06.723Z,0
2019-04-01T00:50:12.868Z,0
2019-04-01T00:53:21.115Z,0
2019-04-01T00:56:27.075Z,0
2019-04-01T00:59:33.076Z,0
2019-04-01T01:02:38.982Z,0
2019-04-01T01:05:44.951Z,0
2019-04-01T01:08:50.889Z,0
2019-04-01T01:11:56.871Z,0
2019-04-01T01:15:05.704Z,0
2019-04-01T01:18:11.835Z,0
2019-04-01T01:21:17.716Z,0
2019-04-01T01:24:23.679Z,0
2019-04-01T01:27:29.688Z,0
2019-04-01T01:30:35.549Z,0
2019-04-01T01:33:41.555Z,0
2019-04-01T01:36:47.621Z,0
2019-04-01T01:39:53.784Z,0
2019-04-01T01:42:59.743Z,0
2019-04-01T01:46:05.898Z,0
2019-04-01T01:49:11.873Z,0
2019-04-01T01:52:17.794Z,0
2019-04-01T01:55:23.776Z,0
2019-04-01T01:58:29.652Z,0
2019-04-01T02:01:35.598Z,0
2019-04-01T02:04:41.469Z,0
2019-04-01T02:07:47.419Z,0
2019-04-01T02:10:53.585Z,0
2019-04-01T02:13:59.537Z,0
2019-04-01T02:17:05.423Z,0
2019-04-01T02:20:11.351Z,0
2019-04-01T02:23:17.324Z,0
2019-04-01T02:26:23.200Z,0
2019-04-01T02:29:31.756Z,0
2019-04-01T02:32:37.660Z,0
2019-04-01T02:35:43.693Z,0
2019-04-01T02:38:49.715Z,0
2019-04-01T02:41:55.737Z,0
2019-04-01T02:45:02.085Z,0
2019-04-01T02:48:08.171Z,0
2019-04-01T02:51:14.074Z,0
2019-04-01T02:54:20.203Z,0
2019-04-01T02:57:26.262Z,1.2
2019-04-01T03:00:32.322Z,194.4
2019-04-01T03:03:38.279Z,240.5
2019-04-01T03:06:44.301Z,252
2019-04-01T03:09:50.545Z,256.3
2019-04-01T03:12:56.461Z,257.8
2019-04-01T03:16:02.522Z,257.8
2019-04-01T03:19:08.577Z,257.8
2019-04-01T03:22:14.702Z,259.2
2019-04-01T03:25:20.713Z,259.2
2019-04-01T03:28:26.670Z,260.6
2019-04-01T03:31:32.717Z,260.6
2019-04-01T03:34:38.777Z,260.6
2019-04-01T03:37:44.958Z,260.6
2019-04-01T03:40:50.965Z,260.6
2019-04-01T03:43:57.085Z,260.6
2019-04-01T03:47:03.041Z,260.6
2019-04-01T03:50:09.051Z,260.6
2019-04-01T03:53:15.148Z,260.6
2019-04-01T03:56:21.026Z,262.1
2019-04-01T03:59:26.987Z,262.1
2019-04-01T04:02:33.055Z,262.1
2019-04-01T04:05:39.157Z,260.6
2019-04-01T04:08:45.176Z,262.1
2019-04-01T04:11:51.127Z,263.5
2019-04-01T04:14:57.183Z,263.5
2019-04-01T04:18:03.158Z,262.1
2019-04-01T04:21:09.064Z,263.5
2019-04-01T04:24:15.069Z,266.4
2019-04-01T04:27:21.247Z,267.8
2019-04-01T04:30:27.295Z,272.2
2019-04-01T04:33:33.256Z,276.5
2019-04-01T04:36:39.216Z,285.1
2019-04-01T04:39:45.176Z,288
2019-04-01T04:42:51.192Z,290.9
2019-04-01T04:45:57.197Z,296.6
2019-04-01T04:49:03.268Z,302.4
2019-04-01T04:52:09.147Z,306.7
2019-04-01T04:55:15.179Z,313.9
2019-04-01T04:58:21.064Z,324
2019-04-01T05:01:26.997Z,342.7
2019-04-01T05:04:32.962Z,357.1
2019-04-01T05:07:39.152Z,361.4
2019-04-01T05:10:45.080Z,357.1
2019-04-01T05:13:51.218Z,364.3
2019-04-01T05:16:57.211Z,357.1
2019-04-01T05:20:03.527Z,385.9
2019-04-01T05:23:09.535Z,391.7
2019-04-01T05:26:15.606Z,400.3
2019-04-01T05:29:24.475Z,397.4
2019-04-01T05:32:30.361Z,397.4
2019-04-01T05:35:36.353Z,391.7
2019-04-01T05:38:42.612Z,377.3
2019-04-01T05:41:48.660Z,361.4
2019-04-01T05:44:54.535Z,338.4
2019-04-01T05:48:00.497Z,331.2
2019-04-01T05:51:06.644Z,328.3
2019-04-01T05:54:12.520Z,328.3
2019-04-01T05:57:18.663Z,329.8
2019-04-01T06:00:24.544Z,329.8
2019-04-01T06:03:30.419Z,329.8
2019-04-01T06:06:36.458Z,329.8
2019-04-01T06:09:42.415Z,329.8
2019-04-01T06:12:48.384Z,326.9
2019-04-01T06:15:54.370Z,326.9
2019-04-01T06:19:00.503Z,325.4
2019-04-01T06:22:10.064Z,325.4
2019-04-01T06:25:15.969Z,322.6
2019-04-01T06:28:22.189Z,321.1
2019-04-01T06:31:28.276Z,319.7
2019-04-01T06:34:35.122Z,321.1
2019-04-01T06:37:41.189Z,316.8
2019-04-01T06:40:47.162Z,315.4
2019-04-01T06:43:54.221Z,313.9
2019-04-01T06:47:00.200Z,312.5
2019-04-01T06:50:07.347Z,311
2019-04-01T06:53:13.433Z,308.2
2019-04-01T06:56:19.667Z,309.6
2019-04-01T06:59:25.678Z,309.6
2019-04-01T07:02:31.689Z,309.6
2019-04-01T07:05:38.122Z,309.6
2019-04-01T07:08:44.190Z,309.6
2019-04-01T07:11:50.339Z,306.7
2019-04-01T07:14:56.399Z,306.7
2019-04-01T07:18:02.268Z,306.7
2019-04-01T07:21:08.342Z,305.3
2019-04-01T07:24:14.465Z,305.3
2019-04-01T07:27:20.345Z,303.8
2019-04-01T07:30:26.461Z,303.8
2019-04-01T07:33:32.516Z,301
2019-04-01T07:36:38.879Z,301
2019-04-01T07:39:44.778Z,299.5
2019-04-01T07:42:50.762Z,298.1
2019-04-01T07:46:01.199Z,298.1
2019-04-01T07:49:07.267Z,296.6
2019-04-01T07:52:13.397Z,296.6
2019-04-01T07:55:20.331Z,295.2
2019-04-01T07:58:27.438Z,293.8
2019-04-01T08:01:33.942Z,292.3
2019-04-01T08:04:39.854Z,292.3
2019-04-01T08:07:45.921Z,290.9
2019-04-01T08:10:51.899Z,289.4
2019-04-01T08:13:57.944Z,288
2019-04-01T08:17:04.000Z,288
2019-04-01T08:20:12.931Z,285.1
2019-04-01T08:23:19.015Z,285.1
2019-04-01T08:26:25.070Z,285.1
2019-04-01T08:29:33.690Z,282.2
2019-04-01T08:32:41.080Z,283.7
2019-04-01T08:35:47.153Z,282.2
2019-04-01T08:38:56.603Z,282.2
2019-04-01T08:42:02.656Z,279.4
2019-04-01T08:45:08.664Z,279.4
2019-04-01T08:48:14.658Z,279.4
2019-04-01T08:51:20.637Z,279.4
2019-04-01T08:54:26.509Z,279.4
2019-04-01T08:57:32.708Z,279.4
2019-04-01T09:00:38.589Z,279.4
2019-04-01T09:03:44.575Z,279.4
2019-04-01T09:06:50.620Z,277.9
2019-04-01T09:09:56.599Z,276.5
2019-04-01T09:13:02.616Z,276.5
2019-04-01T09:16:08.733Z,276.5
2019-04-01T09:19:14.798Z,276.5
2019-04-01T09:22:20.722Z,277.9
2019-04-01T09:25:26.816Z,277.9
2019-04-01T09:28:32.773Z,277.9
2019-04-01T09:31:38.698Z,277.9
2019-04-01T09:34:44.793Z,277.9
2019-04-01T09:37:50.749Z,277.9
2019-04-01T09:40:56.949Z,277.9
2019-04-01T09:44:02.987Z,277.9
2019-04-01T09:47:08.890Z,277.9
2019-04-01T09:50:14.815Z,276.5
2019-04-01T09:53:20.690Z,277.9
2019-04-01T09:56:29.629Z,277.9
2019-04-01T09:59:35.520Z,276.5
2019-04-01T10:02:41.586Z,276.5
2019-04-01T10:05:47.464Z,276.5
2019-04-01T10:08:53.431Z,276.5
2019-04-01T10:11:59.387Z,276.5
2019-04-01T10:15:05.448Z,276.5
2019-04-01T10:18:11.420Z,277.9
2019-04-01T10:21:17.571Z,276.5
2019-04-01T10:24:23.612Z,277.9
2019-04-01T10:27:29.496Z,276.5
2019-04-01T10:30:35.486Z,277.9
2019-04-01T10:33:41.359Z,276.5
2019-04-01T10:36:47.370Z,276.5
2019-04-01T10:39:53.433Z,276.5
2019-04-01T10:42:59.405Z,276.5
2019-04-01T10:46:05.657Z,277.9
2019-04-01T10:49:12.282Z,276.5
2019-04-01T10:52:18.574Z,277.9
2019-04-01T10:55:27.923Z,276.5
2019-04-01T10:58:34.301Z,276.5
2019-04-01T11:01:40.636Z,276.5
2019-04-01T11:04:46.851Z,276.5
2019-04-01T11:07:53.104Z,276.5
2019-04-01T11:10:59.076Z,277.9
2019-04-01T11:14:05.144Z,276.5
2019-04-01T11:17:11.041Z,276.5
2019-04-01T11:20:17.069Z,277.9
2019-04-01T11:23:23.255Z,276.5
2019-04-01T11:26:29.388Z,276.5
2019-04-01T11:29:35.259Z,276.5
2019-04-01T11:32:43.262Z,277.9
2019-04-01T11:35:49.459Z,277.9
2019-04-01T11:38:55.718Z,276.5
2019-04-01T11:42:04.644Z,276.5
2019-04-01T11:45:11.092Z,277.9
2019-04-01T11:48:17.695Z,279.4
2019-04-01T11:51:42.704Z,279.4
2019-04-01T11:54:48.781Z,277.9
2019-04-01T11:57:54.899Z,277.9
2019-04-01T12:01:00.843Z,277.9
2019-04-01T12:04:06.817Z,277.9
2019-04-01T12:07:12.788Z,277.9
2019-04-01T12:10:18.788Z,279.4
2019-04-01T12:13:24.658Z,277.9
2019-04-01T12:16:30.875Z,279.4
2019-04-01T12:19:36.756Z,279.4
2019-04-01T12:22:48.749Z,276.5
2019-04-01T12:25:54.778Z,277.9
2019-04-01T12:29:00.908Z,277.9
2019-04-01T12:32:06.870Z,276.5
2019-04-01T12:35:13.046Z,276.5
2019-04-01T12:38:19.441Z,277.9
2019-04-01T12:41:25.504Z,277.9
2019-04-01T12:44:31.457Z,276.5
2019-04-01T12:47:37.608Z,276.5
2019-04-01T12:50:47.397Z,277.9
2019-04-01T12:53:53.797Z,277.9
2019-04-01T12:56:59.792Z,277.9
2019-04-01T13:00:05.765Z,276.5
2019-04-01T13:03:12.048Z,275
2019-04-01T13:06:18.095Z,276.5
2019-04-01T13:09:26.706Z,276.5
2019-04-01T13:12:32.697Z,276.5
2019-04-01T13:15:38.557Z,276.5
2019-04-01T13:18:44.969Z,277.9
2019-04-01T13:21:52.618Z,276.5
2019-04-01T13:24:58.638Z,275
2019-04-01T13:28:12.805Z,276.5
2019-04-01T13:31:19.061Z,275
2019-04-01T13:34:25.155Z,275
2019-04-01T13:37:31.118Z,273.6
2019-04-01T13:40:37.096Z,275
2019-04-01T13:43:44.757Z,273.6
2019-04-01T13:46:57.056Z,276.5
2019-04-01T13:50:04.781Z,273.6
2019-04-01T13:53:10.967Z,273.6
2019-04-01T13:56:17.032Z,275
2019-04-01T13:59:23.069Z,276.5
2019-04-01T14:02:33.848Z,275
2019-04-01T14:05:39.919Z,273.6
2019-04-01T14:08:45.977Z,276.5
2019-04-01T14:11:52.015Z,273.6
2019-04-01T14:14:58.077Z,272.2
2019-04-01T14:18:04.070Z,272.2
2019-04-01T14:21:24.606Z,272.2
2019-04-01T14:24:30.537Z,272.2
2019-04-01T14:27:36.512Z,273.6
2019-04-01T14:30:44.094Z,273.6
2019-04-01T14:33:50.044Z,272.2
2019-04-01T14:36:56.036Z,270.7
2019-04-01T14:40:02.072Z,269.3
2019-04-01T14:43:08.950Z,269.3
2019-04-01T14:46:15.884Z,269.3
2019-04-01T14:49:21.800Z,269.3
2019-04-01T14:52:35.711Z,269.3
2019-04-01T14:55:41.818Z,270.7
2019-04-01T14:58:47.851Z,269.3
2019-04-01T15:01:53.819Z,270.7
2019-04-01T15:04:59.754Z,269.3
2019-04-01T15:08:09.746Z,269.3
2019-04-01T15:11:15.873Z,269.3
2019-04-01T15:14:21.850Z,267.8
2019-04-01T15:17:27.895Z,267.8
2019-04-01T15:20:33.772Z,267.8
2019-04-01T15:23:39.747Z,267.8
2019-04-01T15:26:45.612Z,266.4
2019-04-01T15:29:51.661Z,267.8
2019-04-01T15:32:57.527Z,266.4
2019-04-01T15:36:07.165Z,265
2019-04-01T15:39:13.036Z,263.5
2019-04-01T15:42:19.091Z,263.5
2019-04-01T15:45:25.034Z,262.1
2019-04-01T15:48:30.909Z,262.1
2019-04-01T15:51:38.065Z,262.1
2019-04-01T15:54:43.936Z,262.1
2019-04-01T15:57:50.002Z,263.5
2019-04-01T16:00:56.067Z,263.5
2019-04-01T16:04:02.021Z,262.1
2019-04-01T16:07:07.980Z,262.1
2019-04-01T16:10:13.949Z,260.6
2019-04-01T16:13:19.969Z,260.6
2019-04-01T16:16:25.832Z,262.1
2019-04-01T16:19:32.441Z,262.1
2019-04-01T16:22:38.369Z,262.1
2019-04-01T16:25:47.943Z,260.6
2019-04-01T16:28:53.898Z,260.6
2019-04-01T16:32:00.894Z,260.6
2019-04-01T16:35:06.770Z,260.6
2019-04-01T16:38:12.803Z,260.6
2019-04-01T16:41:19.590Z,259.2
2019-04-01T16:44:25.643Z,260.6
2019-04-01T16:47:34.328Z,259.2
2019-04-01T16:50:40.482Z,259.2
2019-04-01T16:53:47.518Z,257.8
2019-04-01T16:56:53.479Z,257.8
2019-04-01T17:00:03.084Z,257.8
2019-04-01T17:03:09.088Z,259.2
2019-04-01T17:06:18.990Z,257.8
2019-04-01T17:09:24.996Z,257.8
2019-04-01T17:12:31.467Z,259.2
2019-04-01T17:15:37.537Z,257.8
2019-04-01T17:18:43.544Z,259.2
2019-04-01T17:21:49.603Z,260.6
2019-04-01T17:24:56.326Z,260.6
2019-04-01T17:28:05.879Z,260.6
2019-04-01T17:31:12.039Z,262.1
2019-04-01T17:34:18.818Z,260.6
2019-04-01T17:37:24.777Z,260.6
2019-04-01T17:40:30.654Z,260.6
2019-04-01T17:43:36.714Z,262.1
2019-04-01T17:46:42.585Z,262.1
2019-04-01T17:49:48.527Z,262.1
2019-04-01T17:52:56.275Z,262.1
2019-04-01T17:56:02.281Z,260.6
2019-04-01T17:59:08.283Z,260.6
2019-04-01T18:02:19.636Z,262.1
2019-04-01T18:05:25.591Z,262.1
2019-04-01T18:08:31.468Z,262.1
2019-04-01T18:11:39.048Z,262.1
2019-04-01T18:14:45.127Z,262.1
2019-04-01T18:17:52.757Z,262.1
2019-04-01T18:20:58.770Z,263.5
2019-04-01T18:24:04.923Z,262.1
2019-04-01T18:27:10.894Z,262.1
2019-04-01T18:30:18.622Z,2.5
2019-04-01T18:33:24.668Z,2.5
2019-04-01T18:36:30.541Z,2.5
2019-04-01T18:39:52.966Z,2.5
2019-04-01T18:43:05.222Z,2.5
2019-04-01T18:46:11.256Z,2.5
2019-04-01T18:49:18.502Z,2.5
2019-04-01T18:52:24.487Z,2.5
2019-04-01T18:55:32.300Z,2.5
2019-04-01T18:58:38.246Z,2.5
2019-04-01T19:01:45.851Z,2.5
2019-04-01T19:04:54.818Z,2.5
2019-04-01T19:08:00.834Z,2.5
2019-04-01T19:11:08.690Z,2.5
2019-04-01T19:14:16.563Z,2.5
2019-04-01T19:17:22.503Z,2.5
2019-04-01T19:20:32.232Z,2.5
2019-04-01T19:23:41.283Z,2.5
2019-04-01T19:26:47.243Z,2.5
2019-04-01T19:29:53.203Z,2.5
2019-04-01T19:32:59.172Z,2.5
2019-04-01T19:36:05.123Z,2.5
2019-04-01T19:39:11.081Z,2.5
2019-04-01T19:42:18.585Z,2.5
2019-04-01T19:45:24.539Z,2.5
2019-04-01T19:48:31.326Z,2.5
2019-04-01T19:51:39.274Z,2.5
2019-04-01T19:54:45.287Z,2.5
2019-04-01T19:57:51.161Z,2.5
2019-04-01T20:00:57.256Z,2.5
2019-04-01T20:04:04.782Z,2.5
2019-04-01T20:07:10.767Z,2.5
2019-04-01T20:10:18.416Z,2.5
2019-04-01T20:13:24.320Z,2.4
2019-04-01T20:16:30.287Z,2.4
2019-04-01T20:19:37.060Z,2.4
2019-04-01T20:22:43.025Z,2.5
2019-04-01T20:25:52.614Z,2.4
2019-04-01T20:28:58.628Z,2.5
2019-04-01T20:32:20.095Z,2.5
2019-04-01T20:35:28.783Z,2.5
2019-04-01T20:38:34.739Z,2.4
2019-04-01T20:41:40.696Z,2.4
2019-04-01T20:44:46.757Z,213.1
2019-04-01T20:47:53.433Z,0
2019-04-01T20:51:00.516Z,0
2019-04-01T20:54:06.485Z,0
2019-04-01T20:57:12.647Z,0
2019-04-01T21:00:18.613Z,0
2019-04-01T21:03:24.571Z,0
2019-04-01T21:06:34.213Z,0
2019-04-01T21:09:40.174Z,0
2019-04-01T21:12:46.234Z,0
2019-04-01T21:15:52.197Z,0
2019-04-01T21:18:58.154Z,0
2019-04-01T21:22:04.032Z,0
2019-04-01T21:25:11.614Z,0
2019-04-01T21:28:17.722Z,0
2019-04-01T21:31:27.526Z,0
2019-04-01T21:34:33.483Z,0
2019-04-01T21:37:39.390Z,0
2019-04-01T21:40:45.493Z,0
2019-04-01T21:43:52.167Z,0
2019-04-01T21:46:58.149Z,0
2019-04-01T21:50:04.111Z,0
2019-04-01T21:53:11.832Z,0
2019-04-01T21:56:17.864Z,0
2019-04-01T21:59:23.826Z,0
2019-04-01T22:02:38.948Z,0
2019-04-01T22:05:46.295Z,0
2019-04-01T22:08:52.302Z,0
2019-04-01T22:11:59.951Z,0
2019-04-01T22:15:05.824Z,0
2019-04-01T22:18:11.769Z,0
2019-04-01T22:21:19.575Z,0
2019-04-01T22:24:25.450Z,0
2019-04-01T22:27:31.400Z,0
2019-04-01T22:30:37.367Z,0
2019-04-01T22:33:43.619Z,0
2019-04-01T22:36:49.583Z,0
2019-04-01T22:39:55.642Z,0
2019-04-01T22:43:01.599Z,0
2019-04-01T22:46:07.665Z,0
2019-04-01T22:49:15.056Z,0
2019-04-01T22:52:21.019Z,0
2019-04-01T22:55:28.832Z,0
2019-04-01T22:58:34.785Z,0
2019-04-01T23:01:40.745Z,0
2019-04-01T23:04:46.714Z,0
2019-04-01T23:07:52.669Z,0
2019-04-01T23:10:59.456Z,0
2019-04-01T23:14:05.416Z,0
2019-04-01T23:17:12.978Z,0
2019-04-01T23:20:19.066Z,0
2019-04-01T23:23:25.025Z,0
2019-04-01T23:26:33.041Z,0
2019-04-01T23:29:39.088Z,0
2019-04-01T23:32:47.210Z,0
2019-04-01T23:35:53.163Z,0
2019-04-01T23:38:59.043Z,0
2019-04-01T23:42:07.861Z,0
2019-04-01T23:45:13.682Z,0
2019-04-01T23:48:19.661Z,0
2019-04-01T23:51:25.723Z,0
2019-04-01T23:54:33.668Z,0
2019-04-01T23:57:39.539Z,0
